Time;durP1;ratioP1;P1;durP2;ratioP2;P2;SDS_P1;SDS_P2;PMS_P1;PMS_P2;Temp;Humidity;BMP_temperature;BMP_pressure;BME280_temperature;BME280_humidity;BME280_pressure;Samples;Min_cycle;Max_cycle;Signal;HPM_P1;HPM_P2
2024/02/26 00:01:21;;;;;;;15.68;6.78;;;9.60;99.90;;;;;;5087500;28;20570;-86
2024/02/26 00:03:49;;;;;;;16.98;7.65;;;9.60;99.90;;;;;;5086538;28;20037;-85
2024/02/26 00:06:18;;;;;;;16.27;7.57;;;9.60;99.90;;;;;;5088560;28;20521;-85
2024/02/26 00:08:46;;;;;;;17.13;7.10;;;9.60;99.90;;;;;;5088116;28;20053;-85
2024/02/26 00:11:15;;;;;;;19.73;9.35;;;9.60;99.90;;;;;;5084250;28;20078;-84
2024/02/26 00:13:43;;;;;;;16.33;8.18;;;9.50;99.90;;;;;;5102539;27;20044;-85
2024/02/26 00:16:12;;;;;;;19.40;9.48;;;9.60;99.90;;;;;;5087299;28;20090;-82
2024/02/26 00:18:41;;;;;;;20.90;9.95;;;9.60;99.90;;;;;;5087533;28;20048;-83
2024/02/26 00:21:10;;;;;;;17.38;9.25;;;9.60;99.90;;;;;;5105406;28;20453;-83
2024/02/26 00:23:39;;;;;;;19.05;8.85;;;9.60;99.90;;;;;;5089229;28;20379;-83
2024/02/26 00:26:08;;;;;;;19.85;8.82;;;9.50;99.90;;;;;;5089972;28;20052;-84
2024/02/26 00:28:37;;;;;;;19.08;8.10;;;9.60;99.90;;;;;;5093010;28;20140;-83
2024/02/26 00:31:06;;;;;;;23.05;8.02;;;9.60;99.90;;;;;;5087039;28;20561;-82
2024/02/26 00:33:35;;;;;;;17.95;8.40;;;9.50;99.90;;;;;;5101928;28;20044;-82
2024/02/26 00:36:07;;;;;;;16.38;7.03;;;9.60;99.90;;;;;;5087688;28;20040;-84
2024/02/26 00:38:37;;;;;;;18.35;8.35;;;9.50;99.90;;;;;;5085657;28;20498;-83
2024/02/26 00:41:06;;;;;;;17.65;8.15;;;9.50;99.90;;;;;;5086056;28;20048;-83
2024/02/26 00:43:34;;;;;;;19.95;8.23;;;9.50;99.90;;;;;;5086873;28;20048;-82
2024/02/26 00:46:05;;;;;;;17.27;8.40;;;9.50;99.90;;;;;;5084253;28;20060;-82
2024/02/26 00:48:34;;;;;;;16.75;8.40;;;9.50;99.90;;;;;;5078334;28;20488;-84
2024/02/26 00:51:05;;;;;;;19.10;8.60;;;9.50;99.90;;;;;;5083961;28;20051;-84
2024/02/26 00:53:35;;;;;;;15.45;8.85;;;9.50;99.90;;;;;;5084530;28;20076;-83
2024/02/26 00:56:03;;;;;;;16.80;7.90;;;9.50;99.90;;;;;;5090560;28;20477;-81
2024/02/26 00:58:32;;;;;;;17.70;8.25;;;9.50;99.90;;;;;;5103831;28;20047;-82
2024/02/26 01:01:00;;;;;;;17.23;9.75;;;9.50;99.90;;;;;;5103436;28;20040;-82
2024/02/26 01:03:29;;;;;;;23.25;9.98;;;9.50;99.90;;;;;;5106643;27;20057;-79
2024/02/26 01:05:58;;;;;;;21.50;10.65;;;9.50;99.90;;;;;;5100323;28;20549;-81
2024/02/26 01:08:27;;;;;;;15.57;8.43;;;9.50;99.90;;;;;;5086058;28;20052;-83
2024/02/26 01:10:57;;;;;;;19.23;8.82;;;9.50;99.90;;;;;;5088823;28;20584;-80
2024/02/26 01:13:25;;;;;;;19.27;8.85;;;9.50;99.90;;;;;;5086297;28;20040;-83
2024/02/26 01:15:54;;;;;;;18.65;8.95;;;9.50;99.90;;;;;;5084833;28;20437;-80
2024/02/26 01:18:23;;;;;;;19.58;9.05;;;9.50;99.90;;;;;;5088390;28;20062;-82
2024/02/26 01:20:54;;;;;;;21.10;9.18;;;9.50;99.90;;;;;;5088538;28;20048;-83
2024/02/26 01:23:22;;;;;;;20.65;10.30;;;9.50;99.90;;;;;;5080240;28;20058;-83
2024/02/26 01:25:51;;;;;;;21.52;10.02;;;9.50;99.90;;;;;;5089495;28;20060;-83
2024/02/26 01:28:21;;;;;;;18.05;9.00;;;9.50;99.90;;;;;;5087645;28;20052;-82
2024/02/26 01:30:49;;;;;;;22.33;10.23;;;9.50;99.90;;;;;;5089507;28;20067;-80
2024/02/26 01:33:18;;;;;;;21.00;9.68;;;9.50;99.90;;;;;;5101817;27;20092;-83
2024/02/26 01:35:46;;;;;;;20.40;10.65;;;9.50;99.90;;;;;;5086394;28;20043;-83
2024/02/26 01:38:15;;;;;;;22.30;10.05;;;9.50;99.90;;;;;;5089115;28;20052;-83
2024/02/26 01:40:45;;;;;;;19.67;10.07;;;9.50;99.90;;;;;;5086871;28;20048;-82
2024/02/26 01:43:14;;;;;;;21.67;9.73;;;9.50;99.90;;;;;;5097895;28;20067;-82
2024/02/26 01:45:44;;;;;;;21.50;9.85;;;9.50;99.90;;;;;;5086551;28;20479;-81
2024/02/26 01:48:12;;;;;;;18.30;8.88;;;9.40;99.90;;;;;;5084957;28;20040;-83
2024/02/26 01:50:42;;;;;;;18.25;9.05;;;9.50;99.90;;;;;;5085978;28;20101;-82
2024/02/26 01:53:11;;;;;;;21.10;9.65;;;9.40;99.90;;;;;;5084354;28;20046;-81
2024/02/26 01:55:40;;;;;;;21.30;9.10;;;9.40;99.90;;;;;;5083585;28;20110;-83
2024/02/26 01:58:08;;;;;;;18.52;8.52;;;9.40;99.90;;;;;;5088314;28;20040;-81
2024/02/26 02:00:38;;;;;;;18.15;8.80;;;9.40;99.90;;;;;;5086980;28;20372;-81
2024/02/26 02:03:08;;;;;;;17.60;9.07;;;9.40;99.90;;;;;;5085199;28;20406;-84
2024/02/26 02:05:41;;;;;;;19.55;8.98;;;9.40;99.90;;;;;;5084382;28;20048;-82
2024/02/26 02:08:12;;;;;;;17.05;8.30;;;9.40;99.90;;;;;;5106155;28;20044;-81
2024/02/26 02:10:43;;;;;;;18.40;8.88;;;9.40;99.90;;;;;;5082576;28;20052;-79
2024/02/26 02:13:11;;;;;;;20.30;8.95;;;9.40;99.90;;;;;;5099692;28;20089;-84
2024/02/26 02:15:40;;;;;;;17.60;9.13;;;9.40;99.90;;;;;;5091474;28;20044;-83
2024/02/26 02:18:13;;;;;;;19.70;8.80;;;9.40;99.90;;;;;;5083892;28;20048;-84
2024/02/26 02:20:43;;;;;;;19.33;9.30;;;9.40;99.90;;;;;;5084838;28;20047;-80
2024/02/26 02:23:11;;;;;;;14.02;7.70;;;9.40;99.90;;;;;;5087798;28;20447;-83
2024/02/26 02:25:40;;;;;;;15.93;7.80;;;9.40;99.90;;;;;;5086527;28;20499;-82
2024/02/26 02:28:08;;;;;;;15.35;7.22;;;9.30;99.90;;;;;;5085724;28;20047;-83
2024/02/26 02:30:37;;;;;;;16.15;7.90;;;9.30;99.90;;;;;;5081616;28;20047;-83
2024/02/26 02:33:06;;;;;;;16.05;7.63;;;9.40;99.90;;;;;;5085676;28;20070;-83
2024/02/26 02:35:35;;;;;;;19.50;7.10;;;9.30;99.90;;;;;;5084592;28;20036;-82
2024/02/26 02:38:06;;;;;;;14.65;7.38;;;9.30;99.90;;;;;;5084652;28;20044;-79
2024/02/26 02:40:35;;;;;;;16.70;7.88;;;9.30;99.90;;;;;;5078226;28;20054;-82
2024/02/26 02:43:04;;;;;;;15.25;8.55;;;9.30;99.90;;;;;;5089190;28;20067;-80
2024/02/26 02:45:32;;;;;;;19.70;8.80;;;9.30;99.90;;;;;;5099198;28;20498;-79
2024/02/26 02:48:01;;;;;;;15.05;7.35;;;9.30;99.90;;;;;;5082643;28;21009;-82
2024/02/26 02:50:30;;;;;;;17.25;7.28;;;9.30;99.90;;;;;;5102688;28;20049;-80
2024/02/26 02:52:58;;;;;;;15.70;7.80;;;9.30;99.90;;;;;;5084659;28;20461;-84
2024/02/26 02:55:30;;;;;;;13.57;7.25;;;9.30;99.90;;;;;;5083151;28;20157;-80
2024/02/26 02:57:59;;;;;;;17.48;8.05;;;9.30;99.90;;;;;;5087711;28;20048;-83
2024/02/26 03:00:27;;;;;;;18.40;8.35;;;9.30;99.90;;;;;;5105099;28;20060;-82
2024/02/26 03:02:56;;;;;;;17.65;7.35;;;9.30;99.90;;;;;;5088588;28;20090;-83
2024/02/26 03:05:24;;;;;;;15.32;8.30;;;9.30;99.90;;;;;;5089053;28;20067;-81
2024/02/26 03:07:53;;;;;;;16.85;8.20;;;9.30;99.90;;;;;;5088574;28;20048;-81
2024/02/26 03:10:21;;;;;;;15.25;7.18;;;9.30;99.90;;;;;;5084920;28;20143;-80
2024/02/26 03:12:53;;;;;;;17.25;7.65;;;9.30;99.90;;;;;;5089349;28;20144;-83
2024/02/26 03:15:21;;;;;;;15.07;7.60;;;9.30;99.90;;;;;;5082132;28;20143;-83
2024/02/26 03:17:50;;;;;;;16.30;7.40;;;9.30;99.90;;;;;;5081763;28;20048;-82
2024/02/26 03:20:22;;;;;;;20.45;8.75;;;9.20;99.90;;;;;;5087975;28;20419;-80
2024/02/26 03:22:50;;;;;;;17.63;7.82;;;9.20;99.90;;;;;;5089665;28;20131;-83
2024/02/26 03:25:19;;;;;;;15.60;7.72;;;9.20;99.90;;;;;;5085023;28;20138;-80
2024/02/26 03:27:47;;;;;;;16.55;8.20;;;9.20;99.90;;;;;;5086068;28;20505;-81
2024/02/26 03:30:17;;;;;;;19.20;8.27;;;9.20;99.90;;;;;;5084577;28;20045;-81
2024/02/26 03:32:46;;;;;;;17.42;8.25;;;9.20;99.90;;;;;;5100870;28;20045;-83
2024/02/26 03:35:17;;;;;;;21.52;8.50;;;9.20;99.90;;;;;;5086993;28;20055;-82
2024/02/26 03:37:47;;;;;;;18.92;8.57;;;9.10;99.90;;;;;;5088591;28;20070;-83
2024/02/26 03:40:16;;;;;;;17.13;8.45;;;9.10;99.90;;;;;;5089670;28;20047;-84
2024/02/26 03:42:44;;;;;;;18.42;8.25;;;9.10;99.90;;;;;;5087821;28;20048;-79
2024/02/26 03:45:12;;;;;;;16.15;8.30;;;9.10;99.90;;;;;;5088592;28;20123;-81
2024/02/26 03:47:42;;;;;;;17.20;8.77;;;9.00;99.90;;;;;;5084284;28;20056;-82
2024/02/26 03:50:11;;;;;;;16.67;7.97;;;9.00;99.90;;;;;;5089865;28;20123;-80
2024/02/26 03:52:40;;;;;;;18.30;9.43;;;9.00;99.90;;;;;;5086640;28;20135;-82
2024/02/26 03:55:09;;;;;;;18.02;8.70;;;8.90;99.90;;;;;;5086895;28;20048;-81
2024/02/26 03:57:40;;;;;;;20.48;7.95;;;8.90;99.90;;;;;;5083079;28;20056;-80
2024/02/26 04:00:09;;;;;;;16.92;8.65;;;8.90;99.90;;;;;;5084275;28;20136;-82
2024/02/26 04:02:39;;;;;;;17.25;7.93;;;8.90;99.90;;;;;;5088839;28;20552;-82
2024/02/26 04:05:12;;;;;;;17.60;8.63;;;8.80;99.90;;;;;;5093803;28;20054;-80
2024/02/26 04:07:41;;;;;;;22.80;10.63;;;8.80;99.90;;;;;;5090019;28;20441;-81
2024/02/26 04:10:11;;;;;;;21.90;10.82;;;8.80;99.90;;;;;;5086171;28;20090;-84
2024/02/26 04:12:41;;;;;;;21.67;10.27;;;8.80;99.90;;;;;;5090795;28;20615;-82
2024/02/26 04:15:11;;;;;;;22.80;11.05;;;8.80;99.90;;;;;;5086407;28;20569;-83
2024/02/26 04:17:40;;;;;;;22.95;10.07;;;8.80;99.90;;;;;;5107385;28;20476;-82
2024/02/26 04:20:14;;;;;;;22.23;11.05;;;8.70;99.90;;;;;;5091657;28;20376;-81
2024/02/26 04:22:42;;;;;;;24.20;10.20;;;8.70;99.90;;;;;;5101014;28;20058;-80
2024/02/26 04:25:11;;;;;;;20.75;10.05;;;8.80;99.90;;;;;;5090604;28;20127;-81
2024/02/26 04:27:39;;;;;;;23.67;10.13;;;8.80;99.90;;;;;;5084324;28;20036;-83
2024/02/26 04:30:11;;;;;;;22.30;9.88;;;8.80;99.90;;;;;;5086729;28;20076;-80
2024/02/26 04:32:40;;;;;;;33.90;11.93;;;8.80;99.90;;;;;;5085280;28;20102;-81
2024/02/26 04:35:11;;;;;;;22.13;10.15;;;8.70;99.90;;;;;;5090071;28;20052;-82
2024/02/26 04:37:39;;;;;;;24.30;11.02;;;8.70;99.90;;;;;;5090659;28;20044;-83
2024/02/26 04:40:09;;;;;;;22.45;10.35;;;8.80;99.90;;;;;;5092770;28;20064;-83
2024/02/26 04:42:37;;;;;;;21.15;10.43;;;8.80;99.90;;;;;;5089613;28;20052;-83
2024/02/26 04:45:08;;;;;;;20.75;10.52;;;8.80;99.90;;;;;;5087766;28;20043;-82
2024/02/26 04:47:37;;;;;;;24.02;11.77;;;8.70;99.90;;;;;;5107414;27;20040;-82
2024/02/26 04:50:06;;;;;;;22.85;10.75;;;8.80;99.90;;;;;;5103304;28;20036;-83
2024/02/26 04:52:37;;;;;;;26.00;11.23;;;8.80;99.90;;;;;;5090200;28;20040;-82
2024/02/26 04:55:06;;;;;;;20.08;9.77;;;8.80;99.90;;;;;;5092694;28;20051;-83
2024/02/26 04:57:35;;;;;;;22.05;10.55;;;8.80;99.90;;;;;;5088524;28;20067;-81
2024/02/26 05:00:04;;;;;;;23.70;11.57;;;8.70;99.90;;;;;;5081323;28;20040;-80
2024/02/26 05:02:37;;;;;;;23.48;11.25;;;8.70;99.90;;;;;;5085934;28;20051;-84
2024/02/26 05:05:08;;;;;;;25.90;12.70;;;8.70;99.90;;;;;;5056661;28;20048;-83
2024/02/26 05:07:44;;;;;;;28.30;13.23;;;8.80;99.90;;;;;;5087499;28;20044;-83
2024/02/26 05:10:12;;;;;;;32.83;13.02;;;8.70;99.90;;;;;;5104864;27;20549;-82
2024/02/26 05:12:42;;;;;;;27.45;13.55;;;8.70;99.90;;;;;;5090443;28;20047;-83
2024/02/26 05:15:12;;;;;;;28.35;13.50;;;8.70;99.90;;;;;;5089231;27;20055;-82
2024/02/26 05:17:41;;;;;;;29.50;13.50;;;8.70;99.90;;;;;;5100645;27;20052;-83
2024/02/26 05:20:10;;;;;;;28.58;12.80;;;8.70;99.90;;;;;;5083631;28;20127;-82
2024/02/26 05:22:40;;;;;;;34.47;15.18;;;8.70;99.90;;;;;;5085167;28;20074;-81
2024/02/26 05:25:10;;;;;;;30.60;13.95;;;8.70;99.90;;;;;;5103351;27;20068;-83
2024/02/26 05:27:38;;;;;;;28.10;13.00;;;8.80;99.90;;;;;;5085514;28;20044;-84
2024/02/26 05:30:09;;;;;;;26.55;11.73;;;8.70;99.90;;;;;;5088321;28;20138;-83
2024/02/26 05:32:39;;;;;;;24.88;10.55;;;8.70;99.90;;;;;;5082354;28;20048;-82
2024/02/26 05:35:08;;;;;;;26.83;11.55;;;8.70;99.90;;;;;;5090652;28;20139;-84
2024/02/26 05:37:37;;;;;;;28.30;11.93;;;8.70;99.90;;;;;;5100323;28;20093;-86
2024/02/26 05:40:07;;;;;;;24.83;10.23;;;8.70;99.90;;;;;;5093158;28;20048;-80
2024/02/26 05:42:38;;;;;;;21.15;10.52;;;8.70;99.90;;;;;;5099186;28;20052;-83
2024/02/26 05:45:07;;;;;;;28.45;10.07;;;8.70;99.90;;;;;;5092308;28;20134;-84
2024/02/26 05:47:42;;;;;;;23.98;10.70;;;8.70;99.90;;;;;;5097385;28;20127;-82
2024/02/26 05:50:12;;;;;;;25.10;10.90;;;8.70;99.90;;;;;;5102186;28;20040;-79
2024/02/26 05:52:42;;;;;;;23.10;10.38;;;8.70;99.90;;;;;;5099993;28;20476;-79
2024/02/26 05:55:13;;;;;;;31.80;13.10;;;8.70;99.90;;;;;;5105976;27;20044;-79
2024/02/26 05:57:43;;;;;;;29.70;12.82;;;8.70;99.90;;;;;;5098871;28;20564;-80
2024/02/26 06:00:14;;;;;;;32.00;15.00;;;8.70;99.90;;;;;;5052322;28;20093;-81
2024/02/26 06:02:43;;;;;;;33.53;13.98;;;8.80;99.90;;;;;;5084306;28;20135;-81
2024/02/26 06:05:11;;;;;;;32.25;13.38;;;8.80;99.90;;;;;;5085895;28;20460;-80
2024/02/26 06:07:41;;;;;;;30.33;13.20;;;8.80;99.90;;;;;;5087011;28;20037;-83
2024/02/26 06:10:11;;;;;;;31.45;13.60;;;8.70;99.90;;;;;;5100598;28;20071;-83
2024/02/26 06:12:40;;;;;;;28.23;12.07;;;8.80;99.90;;;;;;5102146;28;20766;-86
2024/02/26 06:15:11;;;;;;;26.20;11.45;;;8.80;99.90;;;;;;5105283;27;20534;-87
2024/02/26 06:17:40;;;;;;;24.70;10.70;;;8.80;99.90;;;;;;5086312;28;20609;-86
2024/02/26 06:20:12;;;;;;;26.08;10.02;;;8.80;99.90;;;;;;5084780;28;20096;-86
2024/02/26 06:22:41;;;;;;;23.65;9.02;;;8.80;99.90;;;;;;5089213;28;20490;-86
2024/02/26 06:25:09;;;;;;;20.40;8.80;;;8.80;99.90;;;;;;5090615;28;20040;-85
2024/02/26 06:27:38;;;;;;;24.63;9.00;;;8.80;99.90;;;;;;5090460;28;20500;-86
2024/02/26 06:30:10;;;;;;;23.58;8.85;;;8.90;99.90;;;;;;5089697;28;20048;-84
2024/02/26 06:32:39;;;;;;;20.08;8.75;;;8.90;99.90;;;;;;5090376;28;20040;-85
2024/02/26 06:35:09;;;;;;;21.35;8.30;;;8.90;99.90;;;;;;5088125;28;20059;-86
2024/02/26 06:37:38;;;;;;;20.63;8.73;;;8.90;99.90;;;;;;5077668;28;20043;-84
2024/02/26 06:40:08;;;;;;;17.63;8.13;;;8.90;99.90;;;;;;5086372;28;20040;-85
2024/02/26 06:42:36;;;;;;;20.65;8.23;;;9.00;99.90;;;;;;5103841;27;20043;-86
2024/02/26 06:45:07;;;;;;;24.42;8.88;;;9.00;99.90;;;;;;5084733;28;20063;-85
2024/02/26 06:47:37;;;;;;;22.52;8.32;;;9.10;99.90;;;;;;5080879;28;20148;-85
2024/02/26 06:50:06;;;;;;;19.45;8.05;;;9.10;99.90;;;;;;5081428;28;20528;-85
2024/02/26 06:52:35;;;;;;;24.80;9.10;;;9.10;99.90;;;;;;5099927;27;20044;-84
2024/02/26 06:55:04;;;;;;;19.27;8.45;;;9.10;99.90;;;;;;5097421;28;20040;-85
2024/02/26 06:57:33;;;;;;;20.52;8.88;;;9.20;99.90;;;;;;5083339;28;20068;-84
2024/02/26 07:00:03;;;;;;;19.38;8.38;;;9.20;99.90;;;;;;5096146;28;20060;-86
2024/02/26 07:02:32;;;;;;;22.75;8.75;;;9.20;99.90;;;;;;5087292;28;20044;-85
2024/02/26 07:05:05;;;;;;;19.48;7.80;;;9.20;99.90;;;;;;5080268;28;20497;-84
2024/02/26 07:07:34;;;;;;;20.17;8.52;;;9.30;99.90;;;;;;5098254;28;20044;-83
2024/02/26 07:10:03;;;;;;;18.10;8.20;;;9.30;99.90;;;;;;5082562;28;20040;-84
2024/02/26 07:12:32;;;;;;;19.30;8.90;;;9.30;99.90;;;;;;5107472;28;20040;-85
2024/02/26 07:15:00;;;;;;;23.98;9.32;;;9.30;99.90;;;;;;5085020;28;20049;-84
2024/02/26 07:17:29;;;;;;;21.10;9.00;;;9.40;99.90;;;;;;5099443;28;20056;-84
2024/02/26 07:19:57;;;;;;;21.17;8.70;;;9.40;99.90;;;;;;5081581;28;20584;-86
2024/02/26 07:22:27;;;;;;;21.00;10.20;;;9.40;99.90;;;;;;5088853;28;20048;-86
2024/02/26 07:24:56;;;;;;;23.15;10.88;;;9.50;99.90;;;;;;5085317;28;20044;-84
2024/02/26 07:27:24;;;;;;;23.35;10.52;;;9.50;99.90;;;;;;5085366;28;20051;-84
2024/02/26 07:29:53;;;;;;;26.30;11.25;;;9.50;99.90;;;;;;5088751;28;20098;-83
2024/02/26 07:32:22;;;;;;;24.63;11.35;;;9.50;99.90;;;;;;5085549;28;20122;-84
2024/02/26 07:34:50;;;;;;;24.52;11.18;;;9.60;99.90;;;;;;5088981;28;20045;-84
2024/02/26 07:37:19;;;;;;;31.10;13.02;;;9.60;99.90;;;;;;5081836;28;20044;-81
2024/02/26 07:39:49;;;;;;;27.17;13.15;;;9.70;99.90;;;;;;5086730;28;20063;-83
2024/02/26 07:42:17;;;;;;;28.30;11.82;;;9.70;99.90;;;;;;5106157;27;20124;-84
2024/02/26 07:44:46;;;;;;;24.90;11.50;;;9.80;99.90;;;;;;5085274;28;20441;-84
2024/02/26 07:47:14;;;;;;;25.67;12.48;;;9.90;99.90;;;;;;5084695;28;20101;-85
2024/02/26 07:49:43;;;;;;;23.85;12.25;;;9.90;99.90;;;;;;5088864;28;20040;-84
2024/02/26 07:52:11;;;;;;;31.55;15.93;;;10.10;99.90;;;;;;5087589;28;20432;-83
2024/02/26 07:54:41;;;;;;;31.67;15.27;;;10.10;99.90;;;;;;5108164;27;20065;-82
2024/02/26 07:57:11;;;;;;;24.52;11.00;;;10.30;99.90;;;;;;5102017;28;20044;-77
2024/02/26 07:59:42;;;;;;;26.85;12.82;;;10.30;99.90;;;;;;5100604;28;20055;-82
2024/02/26 08:02:10;;;;;;;28.80;12.93;;;10.30;99.90;;;;;;5084115;28;20045;-80
2024/02/26 08:04:39;;;;;;;26.75;12.13;;;10.40;99.90;;;;;;5085074;28;20051;-83
2024/02/26 08:07:07;;;;;;;28.08;12.75;;;10.60;99.90;;;;;;5084481;28;20093;-85
2024/02/26 08:09:36;;;;;;;23.52;11.02;;;10.50;99.90;;;;;;5084614;28;20046;-83
2024/02/26 08:12:05;;;;;;;27.58;12.82;;;10.60;99.90;;;;;;5086085;28;20099;-83
2024/02/26 08:14:35;;;;;;;29.50;13.75;;;10.60;99.90;;;;;;5084828;28;20049;-84
2024/02/26 08:17:04;;;;;;;24.65;10.88;;;10.60;99.90;;;;;;5084701;28;20101;-83
2024/02/26 08:19:35;;;;;;;26.05;12.50;;;10.70;99.90;;;;;;5085138;28;20129;-81
2024/02/26 08:22:04;;;;;;;28.38;11.70;;;10.70;99.90;;;;;;5086092;28;20044;-81
2024/02/26 08:24:33;;;;;;;25.20;13.15;;;10.90;99.90;;;;;;5088204;28;20053;-81
2024/02/26 08:27:02;;;;;;;26.52;12.52;;;10.90;99.90;;;;;;5100687;28;20055;-82
2024/02/26 08:29:30;;;;;;;25.77;12.70;;;10.90;99.90;;;;;;5103684;27;20094;-82
2024/02/26 08:32:00;;;;;;;30.00;14.25;;;11.00;99.90;;;;;;5084852;28;20109;-83
2024/02/26 08:34:29;;;;;;;23.77;11.38;;;11.00;99.90;;;;;;5101697;27;20048;-82
2024/02/26 08:36:57;;;;;;;27.00;13.07;;;11.10;99.90;;;;;;5084168;28;20097;-82
2024/02/26 08:39:26;;;;;;;26.98;14.50;;;11.20;99.90;;;;;;5083270;28;20066;-82
2024/02/26 08:41:54;;;;;;;29.00;13.88;;;11.10;99.90;;;;;;5100840;28;20047;-79
2024/02/26 08:44:23;;;;;;;27.10;14.15;;;11.10;99.90;;;;;;5098848;28;20071;-82
2024/02/26 08:46:51;;;;;;;28.38;13.68;;;11.10;99.90;;;;;;5086552;28;20055;-81
2024/02/26 08:49:23;;;;;;;28.80;13.98;;;11.20;99.90;;;;;;5088297;28;20045;-84
2024/02/26 08:51:52;;;;;;;24.02;13.35;;;11.20;99.90;;;;;;5085639;28;20106;-79
2024/02/26 08:54:20;;;;;;;25.00;12.82;;;11.20;99.90;;;;;;5089127;28;20433;-80
2024/02/26 08:56:49;;;;;;;27.77;14.95;;;11.20;99.90;;;;;;5086479;28;20576;-81
2024/02/26 08:59:22;;;;;;;37.38;16.50;;;11.30;99.90;;;;;;5089455;28;20052;-81
2024/02/26 09:01:51;;;;;;;27.83;13.82;;;11.40;99.90;;;;;;5100344;28;20044;-80
2024/02/26 09:04:20;;;;;;;25.85;13.43;;;11.50;99.90;;;;;;5083694;28;20514;-80
2024/02/26 09:06:49;;;;;;;27.95;15.10;;;11.60;99.90;;;;;;5083160;28;20563;-82
2024/02/26 09:09:17;;;;;;;32.00;14.75;;;11.50;99.90;;;;;;5102314;28;20064;-80
2024/02/26 09:11:51;;;;;;;32.28;16.00;;;11.60;99.90;;;;;;5084081;28;20040;-79
2024/02/26 09:14:20;;;;;;;29.83;13.88;;;11.70;99.90;;;;;;5086014;28;20147;-78
2024/02/26 09:16:48;;;;;;;29.58;15.40;;;11.90;99.90;;;;;;5080335;28;20047;-80
2024/02/26 09:19:17;;;;;;;23.95;10.48;;;12.00;99.90;;;;;;5083339;28;20147;-78
2024/02/26 09:21:47;;;;;;;28.20;15.20;;;12.10;99.90;;;;;;5101681;27;20399;-79
2024/02/26 09:24:15;;;;;;;24.23;14.60;;;12.10;99.90;;;;;;5085534;28;20155;-81
2024/02/26 09:26:44;;;;;;;27.55;13.57;;;12.00;99.90;;;;;;5090703;28;20411;-81
2024/02/26 09:29:13;;;;;;;31.55;15.43;;;11.90;99.90;;;;;;5096977;28;20123;-80
2024/02/26 09:31:41;;;;;;;30.48;14.25;;;11.90;99.90;;;;;;5086299;28;20047;-82
2024/02/26 09:34:10;;;;;;;30.90;15.77;;;12.00;99.90;;;;;;5082997;28;20132;-77
2024/02/26 09:36:39;;;;;;;24.83;13.23;;;12.00;99.90;;;;;;5090153;28;20133;-77
2024/02/26 09:39:11;;;;;;;30.35;16.55;;;12.10;99.90;;;;;;5087990;28;20051;-80
2024/02/26 09:41:40;;;;;;;31.05;16.17;;;12.10;99.90;;;;;;5103881;27;20052;-80
2024/02/26 09:44:10;;;;;;;29.27;15.55;;;12.00;99.90;;;;;;5086545;28;20501;-80
2024/02/26 09:46:39;;;;;;;28.60;16.33;;;12.00;99.90;;;;;;5099840;28;20071;-77
2024/02/26 09:49:09;;;;;;;29.30;15.63;;;12.00;99.90;;;;;;5083954;28;20507;-77
2024/02/26 09:51:39;;;;;;;27.98;16.00;;;12.10;99.90;;;;;;5086427;28;20506;-81
2024/02/26 09:54:11;;;;;;;28.40;15.13;;;12.00;99.90;;;;;;5085594;28;20510;-80
2024/02/26 09:56:40;;;;;;;24.02;13.45;;;12.00;99.90;;;;;;5082682;28;20071;-82
2024/02/26 09:59:23;;;;;;;24.35;14.52;;;12.00;99.90;;;;;;5086990;28;20047;-78
2024/02/26 10:01:52;;;;;;;28.17;14.95;;;12.00;99.90;;;;;;5101303;28;20047;-81
2024/02/26 10:04:22;;;;;;;26.05;13.75;;;12.00;99.90;;;;;;5088785;28;20434;-79
2024/02/26 10:06:52;;;;;;;26.25;15.82;;;12.00;99.90;;;;;;5084720;28;20533;-78
2024/02/26 10:09:22;;;;;;;25.67;14.27;;;12.10;99.90;;;;;;5086968;28;20132;-80
2024/02/26 10:11:51;;;;;;;25.50;14.40;;;12.00;99.90;;;;;;5101807;27;20420;-78
2024/02/26 10:14:19;;;;;;;24.17;12.82;;;12.10;99.90;;;;;;5086810;28;20048;-79
2024/02/26 10:16:49;;;;;;;23.20;13.05;;;12.10;99.90;;;;;;5088083;28;20043;-79
2024/02/26 10:19:27;;;;;;;23.08;12.57;;;12.10;99.90;;;;;;5084239;28;20070;-80
2024/02/26 10:21:58;;;;;;;28.00;14.45;;;12.10;99.90;;;;;;5089620;28;20047;-78
2024/02/26 10:24:28;;;;;;;24.23;12.40;;;12.20;99.90;;;;;;5098170;28;20174;-79
2024/02/26 10:26:58;;;;;;;26.80;14.45;;;12.30;99.90;;;;;;5088124;28;20035;-78
2024/02/26 10:29:27;;;;;;;24.13;13.45;;;12.50;99.90;;;;;;5081932;28;20131;-80
2024/02/26 10:31:56;;;;;;;26.40;13.18;;;12.70;99.90;;;;;;5085026;28;20063;-79
2024/02/26 10:34:25;;;;;;;26.75;14.00;;;12.80;99.90;;;;;;5090520;28;20384;-79
2024/02/26 10:36:55;;;;;;;27.10;12.60;;;12.90;99.90;;;;;;5087412;28;20078;-77
2024/02/26 10:39:23;;;;;;;20.27;11.32;;;13.00;99.90;;;;;;5081850;28;20043;-81
2024/02/26 10:41:53;;;;;;;28.30;14.38;;;13.10;99.90;;;;;;5085356;28;20131;-76
2024/02/26 10:44:22;;;;;;;29.77;14.43;;;13.40;99.90;;;;;;5083515;28;20572;-79
2024/02/26 10:46:51;;;;;;;26.23;13.65;;;13.50;99.90;;;;;;5088153;28;20064;-79
2024/02/26 10:49:19;;;;;;;25.05;11.93;;;13.40;99.90;;;;;;5084551;28;20556;-80
2024/02/26 10:51:57;;;;;;;19.75;10.23;;;13.40;99.90;;;;;;5077674;28;20121;-78
2024/02/26 10:54:28;;;;;;;17.20;9.80;;;13.40;99.90;;;;;;5078626;28;20409;-80
2024/02/26 10:56:59;;;;;;;16.92;10.25;;;13.40;99.90;;;;;;5086722;28;20051;-80
2024/02/26 10:59:29;;;;;;;20.25;10.77;;;13.50;99.90;;;;;;5084712;28;20052;-77
2024/02/26 11:01:58;;;;;;;17.70;9.93;;;13.60;99.90;;;;;;5085318;28;20131;-79
2024/02/26 11:04:29;;;;;;;18.75;9.77;;;13.70;99.90;;;;;;5082940;28;20053;-78
2024/02/26 11:06:59;;;;;;;20.40;10.88;;;13.90;99.90;;;;;;5100045;28;20410;-80
2024/02/26 11:09:28;;;;;;;21.67;11.82;;;13.90;99.90;;;;;;5084325;28;20058;-79
2024/02/26 11:11:59;;;;;;;19.33;9.98;;;14.00;99.90;;;;;;5084062;28;20037;-80
2024/02/26 11:14:31;;;;;;;19.48;10.02;;;14.00;99.90;;;;;;5106031;28;20577;-80
2024/02/26 11:17:01;;;;;;;19.48;10.43;;;14.00;99.90;;;;;;5088198;28;20102;-80
2024/02/26 11:19:31;;;;;;;15.27;9.05;;;13.80;99.90;;;;;;5084874;28;20059;-78
2024/02/26 11:22:02;;;;;;;17.45;9.20;;;13.70;99.90;;;;;;5103402;27;20048;-77
2024/02/26 11:24:46;;;;;;;17.95;9.88;;;14.00;99.90;;;;;;5086971;28;20127;-77
2024/02/26 11:27:19;;;;;;;17.52;9.70;;;14.00;99.90;;;;;;5105219;28;20036;-80
2024/02/26 11:29:51;;;;;;;18.65;10.15;;;14.10;99.90;;;;;;5083767;28;20380;-78
2024/02/26 11:32:20;;;;;;;15.63;8.80;;;14.30;99.90;;;;;;5083819;28;20075;-78
2024/02/26 11:34:49;;;;;;;14.50;8.40;;;14.40;99.90;;;;;;5093923;28;20067;-77
2024/02/26 11:37:19;;;;;;;15.20;7.60;;;14.50;99.90;;;;;;5102922;28;20048;-80
2024/02/26 11:39:47;;;;;;;15.10;8.07;;;14.60;99.90;;;;;;5086189;28;20044;-80
2024/02/26 11:42:18;;;;;;;13.13;8.10;;;14.60;99.90;;;;;;5085940;28;20052;-81
2024/02/26 11:44:46;;;;;;;13.18;7.05;;;14.60;99.90;;;;;;5104470;28;20043;-81
2024/02/26 11:47:19;;;;;;;14.73;8.35;;;14.60;99.90;;;;;;5077174;28;20051;-78
2024/02/26 11:49:48;;;;;;;12.70;7.20;;;14.70;99.90;;;;;;5088309;28;20113;-79
2024/02/26 11:52:17;;;;;;;11.35;5.82;;;14.70;99.90;;;;;;5100601;27;20052;-78
2024/02/26 11:54:47;;;;;;;13.80;5.72;;;14.50;99.90;;;;;;5089344;28;20072;-74
2024/02/26 11:57:28;;;;;;;12.38;5.63;;;14.60;99.90;;;;;;5093887;28;20060;-76
2024/02/26 12:00:11;;;;;;;11.27;6.10;;;14.60;99.90;;;;;;5087330;28;20048;-75
2024/02/26 12:02:46;;;;;;;8.43;4.53;;;15.00;99.90;;;;;;5107285;28;20041;-76
2024/02/26 12:05:17;;;;;;;9.05;4.75;;;14.80;99.90;;;;;;5085073;28;20048;-80
2024/02/26 12:07:48;;;;;;;13.50;4.93;;;14.50;99.90;;;;;;5090019;28;20063;-76
2024/02/26 12:10:26;;;;;;;10.40;5.50;;;14.60;99.90;;;;;;5103433;28;20059;-78
2024/02/26 12:13:00;;;;;;;10.93;5.78;;;14.60;99.90;;;;;;5091080;28;20491;-76
2024/02/26 12:15:33;;;;;;;11.57;5.68;;;14.60;99.90;;;;;;5105813;27;20040;-75
2024/02/26 12:18:03;;;;;;;12.82;6.20;;;14.50;99.90;;;;;;5100583;28;20521;-78
2024/02/26 12:20:32;;;;;;;10.60;5.65;;;14.50;99.90;;;;;;5088233;28;20044;-79
2024/02/26 12:23:04;;;;;;;10.00;5.28;;;14.50;99.90;;;;;;5081123;28;20044;-77
2024/02/26 12:25:34;;;;;;;9.55;5.47;;;14.50;99.90;;;;;;5101917;27;20047;-79
2024/02/26 12:28:05;;;;;;;8.52;5.65;;;14.40;99.90;;;;;;5101657;28;20083;-78
2024/02/26 12:30:33;;;;;;;10.68;5.40;;;14.50;99.90;;;;;;5106176;27;20498;-78
2024/02/26 12:33:02;;;;;;;8.38;4.97;;;14.60;99.90;;;;;;5084813;28;20499;-75
2024/02/26 12:35:32;;;;;;;11.75;5.00;;;14.60;99.90;;;;;;5084793;28;20125;-78
2024/02/26 12:38:02;;;;;;;8.88;5.40;;;14.70;99.90;;;;;;5088453;28;20071;-79
2024/02/26 12:40:31;;;;;;;7.43;4.65;;;14.80;99.90;;;;;;5087751;28;21444;-78
2024/02/26 12:43:00;;;;;;;8.07;4.10;;;14.90;99.90;;;;;;5086707;28;20049;-79
2024/02/26 12:45:30;;;;;;;10.30;4.35;;;15.00;99.90;;;;;;5091764;28;20512;-78
2024/02/26 12:48:00;;;;;;;6.60;3.47;;;15.00;99.90;;;;;;5100152;27;20513;-78
2024/02/26 12:50:29;;;;;;;7.07;3.55;;;15.10;99.90;;;;;;5088017;28;20143;-78